createdAt,value
2022-09-21T00:00:26.635Z,84.58
2022-09-21T00:03:35.312Z,84.18
2022-09-21T00:06:43.467Z,84.51
2022-09-21T00:09:53.019Z,84.44
2022-09-21T00:13:02.989Z,84.38
2022-09-21T00:16:11.471Z,83.93
2022-09-21T00:19:19.983Z,84.14
2022-09-21T00:55:38.753Z,82.54
2022-09-21T00:58:54.865Z,82.89
2022-09-21T01:02:05.262Z,82.90
2022-09-21T01:05:15.966Z,83.05
2022-09-21T01:08:27.717Z,82.53
2022-09-21T01:11:49.382Z,83.75
2022-09-21T01:15:19.728Z,83.95
2022-09-21T01:18:37.682Z,82.91
2022-09-21T01:22:00.688Z,83.27
2022-09-21T01:25:26.855Z,83.45
2022-09-21T01:29:16.892Z,83.90
2022-09-21T01:32:33.525Z,83.53
2022-09-21T01:35:48.873Z,83.98
2022-09-21T01:39:14.987Z,83.60
2022-09-21T01:42:27.543Z,83.48
2022-09-21T01:45:44.590Z,83.93
2022-09-21T01:49:03.602Z,83.70
2022-09-21T01:52:22.074Z,83.96
2022-09-21T01:55:40.207Z,84.69
2022-09-21T01:59:02.397Z,84.44
2022-09-21T02:02:20.257Z,84.45
2022-09-21T02:05:31.212Z,85.31
2022-09-21T02:08:40.791Z,84.83
2022-09-21T02:11:49.012Z,84.71
2022-09-21T02:14:57.709Z,84.26
2022-09-21T02:18:18.643Z,84.41
2022-09-21T02:21:34.189Z,84.64
2022-09-21T02:24:47.723Z,84.68
2022-09-21T02:28:03.293Z,86.46
2022-09-21T02:31:20.090Z,85.98
2022-09-21T02:34:37.181Z,84.54
2022-09-21T02:37:56.050Z,84.44
2022-09-21T02:41:13.868Z,84.57
2022-09-21T02:44:33.145Z,84.67
2022-09-21T02:47:49.537Z,84.91
2022-09-21T02:56:08.400Z,83.54
2022-09-21T02:59:17.807Z,83.74
2022-09-21T03:02:36.297Z,83.33
2022-09-21T03:05:46.502Z,83.04
2022-09-21T03:08:54.671Z,83.68
2022-09-21T03:12:05.001Z,83.35
2022-09-21T03:15:13.104Z,83.47
2022-09-21T03:18:21.241Z,83.69
2022-09-21T03:21:29.719Z,83.24
2022-09-21T03:24:46.969Z,83.99
2022-09-21T03:27:57.080Z,84.47
2022-09-21T03:31:06.681Z,83.94
2022-09-21T03:34:14.916Z,84.15
2022-09-21T03:37:23.052Z,84.33
2022-09-21T03:40:31.222Z,84.96
2022-09-21T03:43:40.784Z,84.55
2022-09-21T03:46:51.170Z,84.71
2022-09-21T03:49:59.585Z,85.19
2022-09-21T03:53:09.476Z,84.92
2022-09-21T03:56:17.611Z,84.77
2022-09-21T03:59:27.090Z,84.20
2022-09-21T04:02:35.704Z,84.38
2022-09-21T04:05:43.792Z,84.92
2022-09-21T04:08:53.396Z,84.27
2022-09-21T04:12:01.739Z,84.68
2022-09-21T04:15:13.072Z,84.79
2022-09-21T04:18:21.150Z,84.65
2022-09-21T04:21:29.957Z,85.08
2022-09-21T04:24:39.515Z,85.50
2022-09-21T04:27:48.023Z,85.00
2022-09-21T04:30:57.481Z,85.45
2022-09-21T04:34:05.879Z,85.08
2022-09-21T04:37:13.999Z,85.15
2022-09-21T04:40:23.300Z,85.08
2022-09-21T04:43:31.479Z,85.44
2022-09-21T04:46:42.315Z,85.61
2022-09-21T04:49:51.655Z,85.30
2022-09-21T04:53:00.231Z,85.56
2022-09-21T04:56:10.985Z,84.75
2022-09-21T04:59:19.167Z,85.97
2022-09-21T05:02:29.221Z,85.46
2022-09-21T05:05:37.327Z,85.53
2022-09-21T05:09:02.949Z,85.97
2022-09-21T05:12:11.379Z,86.04
2022-09-21T05:15:20.414Z,84.93
2022-09-21T05:18:32.041Z,85.22
2022-09-21T05:21:40.122Z,85.56
2022-09-21T05:24:48.752Z,85.27
2022-09-21T05:27:57.099Z,84.79
2022-09-21T05:31:28.402Z,85.09
2022-09-21T05:34:53.553Z,84.72
2022-09-21T05:38:11.323Z,84.49
2022-09-21T05:41:21.265Z,84.95
2022-09-21T05:44:30.525Z,84.71
2022-09-21T05:47:42.542Z,85.10
2022-09-21T05:51:03.092Z,84.49
2022-09-21T05:54:22.802Z,84.64
2022-09-21T05:57:48.081Z,83.94
2022-09-21T06:01:17.973Z,83.77
2022-09-21T06:04:26.932Z,84.22
2022-09-21T06:07:36.408Z,84.92
2022-09-21T06:10:45.284Z,84.56
2022-09-21T06:13:53.999Z,84.56
2022-09-21T06:17:04.022Z,84.64
2022-09-21T06:20:12.145Z,83.99
2022-09-21T06:23:21.792Z,84.01
2022-09-21T06:26:30.270Z,83.66
2022-09-21T06:29:38.924Z,83.90
2022-09-21T06:32:46.977Z,84.12
2022-09-21T06:35:57.170Z,84.10
2022-09-21T06:39:06.905Z,83.04
2022-09-21T06:42:15.280Z,81.20
2022-09-21T06:45:23.501Z,82.17
2022-09-21T06:48:35.336Z,80.83
2022-09-21T06:51:44.361Z,77.78
2022-09-21T06:54:54.034Z,72.23
2022-09-21T06:59:19.264Z,68.27
2022-09-21T07:02:28.768Z,67.28
2022-09-21T07:05:38.288Z,65.26
2022-09-21T07:12:21.279Z,62.98
2022-09-21T07:15:31.469Z,62.58
2022-09-21T07:18:44.144Z,65.06
2022-09-21T07:21:55.193Z,67.01
2022-09-21T07:25:06.935Z,67.14
2022-09-21T07:28:16.638Z,67.65
2022-09-21T07:31:24.816Z,66.50
2022-09-21T07:34:37.191Z,65.59
2022-09-21T07:37:45.378Z,65.64
2022-09-21T07:40:54.833Z,67.53
2022-09-21T07:44:07.407Z,66.51
2022-09-21T07:47:16.920Z,66.95
2022-09-21T07:50:25.246Z,66.67
2022-09-21T07:53:34.112Z,66.08
2022-09-21T07:57:03.666Z,66.95
2022-09-21T08:00:13.836Z,64.74
2022-09-21T08:03:22.044Z,64.90
2022-09-21T08:06:35.189Z,65.21
2022-09-21T08:09:43.451Z,65.36
2022-09-21T08:12:51.933Z,66.46
2022-09-21T08:16:03.735Z,64.09
2022-09-21T08:19:12.088Z,63.00
2022-09-21T08:22:20.875Z,64.13
2022-09-21T08:25:30.327Z,62.22
2022-09-21T08:28:38.775Z,62.49
2022-09-21T08:31:48.325Z,63.07
2022-09-21T08:34:56.615Z,62.61
2022-09-21T08:38:04.998Z,62.54
2022-09-21T08:41:19.973Z,60.25
2022-09-21T08:44:36.991Z,60.63
2022-09-21T08:47:52.219Z,60.38
2022-09-21T08:51:08.079Z,59.24
2022-09-21T08:54:26.369Z,56.09
2022-09-21T08:57:35.664Z,55.31
2022-09-21T09:00:44.589Z,56.73
2022-09-21T09:04:24.100Z,55.76
2022-09-21T09:07:59.530Z,54.38
2022-09-21T09:11:24.969Z,51.37
2022-09-21T09:15:07.331Z,50.16
2022-09-21T09:18:29.326Z,49.32
2022-09-21T09:21:42.788Z,47.41
2022-09-21T09:24:54.599Z,45.43
2022-09-21T09:28:28.846Z,46.25
2022-09-21T09:31:39.342Z,48.34
2022-09-21T09:34:58.490Z,47.65
2022-09-21T09:38:21.268Z,45.88
2022-09-21T09:41:56.090Z,45.23
2022-09-21T09:45:54.618Z,43.90
2022-09-21T09:49:21.373Z,41.67
2022-09-21T09:52:30.130Z,43.51
2022-09-21T09:55:43.733Z,43.26
2022-09-21T09:58:57.674Z,44.75
2022-09-21T10:02:19.778Z,43.05
2022-09-21T10:05:35.680Z,43.77
2022-09-21T10:08:47.270Z,44.54
2022-09-21T10:12:02.070Z,44.56
2022-09-21T10:15:13.344Z,42.99
2022-09-21T10:18:26.283Z,43.95
2022-09-21T10:21:38.506Z,47.28
2022-09-21T10:24:52.370Z,49.93
2022-09-21T10:28:03.691Z,51.11
2022-09-21T10:31:24.138Z,52.74
2022-09-21T10:34:35.132Z,53.41
2022-09-21T10:37:45.551Z,52.32
2022-09-21T10:40:54.928Z,55.87
2022-09-21T10:44:06.170Z,49.72
2022-09-21T10:47:26.663Z,51.43
2022-09-21T10:50:38.693Z,48.74
2022-09-21T10:53:53.795Z,46.37
2022-09-21T10:57:08.675Z,45.75
2022-09-21T11:00:39.334Z,47.43
2022-09-21T11:03:58.885Z,45.40
2022-09-21T11:07:20.324Z,45.83
2022-09-21T11:10:39.469Z,48.51
2022-09-21T11:14:01.054Z,47.53
2022-09-21T11:17:18.521Z,45.21
2022-09-21T11:20:37.887Z,47.15
2022-09-21T11:23:58.632Z,43.93
2022-09-21T11:27:16.742Z,43.62
2022-09-21T11:30:33.436Z,43.33
2022-09-21T11:34:05.479Z,43.17
2022-09-21T11:37:29.988Z,44.08
2022-09-21T11:41:15.000Z,46.01
2022-09-21T11:44:42.294Z,42.54
2022-09-21T11:48:12.274Z,43.89
2022-09-21T11:51:45.868Z,43.09
2022-09-21T11:55:24.200Z,43.01
2022-09-21T11:58:45.394Z,41.71
2022-09-21T12:02:23.670Z,39.88
2022-09-21T12:05:40.287Z,40.66
2022-09-21T12:09:28.462Z,42.59
2022-09-21T12:12:48.131Z,42.80
2022-09-21T12:16:08.663Z,44.73
2022-09-21T12:19:33.062Z,45.65
2022-09-21T12:22:46.555Z,43.56
2022-09-21T12:26:00.005Z,44.28
2022-09-21T12:29:20.029Z,42.40
2022-09-21T12:32:50.109Z,42.05
2022-09-21T12:36:08.649Z,42.21
2022-09-21T12:39:24.451Z,41.34
2022-09-21T12:42:42.921Z,43.22
2022-09-21T12:46:00.178Z,44.32
2022-09-21T12:49:19.269Z,45.48
2022-09-21T12:52:29.324Z,43.56
2022-09-21T12:55:50.019Z,45.55
2022-09-21T12:59:25.569Z,45.17
2022-09-21T13:02:41.856Z,44.08
2022-09-21T13:06:22.726Z,45.48
2022-09-21T13:09:33.422Z,42.67
2022-09-21T13:12:46.851Z,43.75
2022-09-21T13:15:59.197Z,44.06
2022-09-21T13:19:22.432Z,43.36
2022-09-21T13:22:35.388Z,43.76
2022-09-21T13:25:49.486Z,42.90
2022-09-21T13:29:32.936Z,43.16
2022-09-21T13:32:54.735Z,43.19
2022-09-21T13:36:12.460Z,43.24
2022-09-21T13:39:21.359Z,44.26
2022-09-21T13:42:48.818Z,41.58
2022-09-21T13:45:59.468Z,42.06
2022-09-21T13:49:26.435Z,43.08
2022-09-21T13:52:48.154Z,43.28
2022-09-21T13:56:02.679Z,44.18
2022-09-21T13:59:26.105Z,44.28
2022-09-21T14:02:38.167Z,42.36
2022-09-21T14:05:51.836Z,42.67
2022-09-21T14:09:06.102Z,43.81
2022-09-21T14:12:24.083Z,45.61
2022-09-21T14:15:39.734Z,44.12
2022-09-21T14:18:47.940Z,44.42
2022-09-21T14:22:43.581Z,44.53
2022-09-21T14:25:54.467Z,43.46
2022-09-21T14:29:16.887Z,43.84
2022-09-21T14:32:29.357Z,44.97
2022-09-21T14:35:42.276Z,46.43
2022-09-21T14:39:00.380Z,44.25
2022-09-21T14:42:15.721Z,45.51
2022-09-21T14:45:33.704Z,45.42
2022-09-21T14:49:00.127Z,44.84
2022-09-21T14:52:32.064Z,43.65
2022-09-21T14:56:10.074Z,41.73
2022-09-21T14:59:42.256Z,44.13
2022-09-21T15:03:10.813Z,43.90
2022-09-21T15:06:48.327Z,43.70
2022-09-21T15:10:38.367Z,44.70
2022-09-21T15:14:11.160Z,43.22
2022-09-21T15:17:29.825Z,43.75
2022-09-21T15:20:38.650Z,43.45
2022-09-21T15:23:47.001Z,43.67
2022-09-21T15:27:05.349Z,45.17
2022-09-21T15:30:24.746Z,44.01
2022-09-21T15:33:37.446Z,41.95
2022-09-21T15:36:51.753Z,44.05
2022-09-21T15:40:07.571Z,44.25
2022-09-21T15:43:21.104Z,43.00
2022-09-21T15:46:31.059Z,42.88
2022-09-21T15:49:43.803Z,43.57
2022-09-21T15:52:57.214Z,44.46
2022-09-21T15:56:06.547Z,44.85
2022-09-21T15:59:20.766Z,45.63
2022-09-21T16:02:40.284Z,46.54
2022-09-21T16:05:52.203Z,47.00
2022-09-21T16:09:00.412Z,48.17
2022-09-21T16:12:43.581Z,49.22
2022-09-21T16:16:02.049Z,49.49
2022-09-21T16:19:11.630Z,50.78
2022-09-21T16:22:25.567Z,50.96
2022-09-21T16:25:37.649Z,51.70
2022-09-21T16:28:46.052Z,52.20
2022-09-21T16:32:28.473Z,51.83
2022-09-21T16:35:41.541Z,52.97
2022-09-21T16:38:50.503Z,52.33
2022-09-21T16:42:04.009Z,53.43
2022-09-21T16:45:28.451Z,53.42
2022-09-21T16:48:36.939Z,54.20
2022-09-21T16:51:48.937Z,54.13
2022-09-21T16:54:58.992Z,55.17
2022-09-21T16:58:07.210Z,55.96
2022-09-21T17:01:20.910Z,56.75
2022-09-21T17:04:32.033Z,56.79
2022-09-21T17:07:41.888Z,57.73
2022-09-21T17:10:50.052Z,57.67
2022-09-21T17:14:01.327Z,59.03
2022-09-21T17:17:18.207Z,58.82
2022-09-21T17:20:34.528Z,60.02
2022-09-21T17:23:45.402Z,60.71
2022-09-21T17:26:53.973Z,61.31
2022-09-21T17:30:03.485Z,61.95
2022-09-21T17:33:12.169Z,62.54
2022-09-21T17:36:20.364Z,62.11
2022-09-21T17:39:30.023Z,63.50
2022-09-21T17:42:43.075Z,63.52
2022-09-21T17:46:03.585Z,64.98
2022-09-21T17:49:13.020Z,64.71
2022-09-21T17:52:41.142Z,64.64
2022-09-21T17:55:57.664Z,65.30
2022-09-21T17:59:08.059Z,65.61
2022-09-21T18:02:24.116Z,66.50
2022-09-21T18:05:32.704Z,66.56
2022-09-21T18:08:41.972Z,67.65
2022-09-21T18:12:44.165Z,68.35
2022-09-21T18:16:16.804Z,69.24
2022-09-21T18:19:45.617Z,69.41
2022-09-21T18:23:10.728Z,69.27
2022-09-21T18:26:20.751Z,69.71
2022-09-21T18:29:41.757Z,70.30
2022-09-21T18:33:13.476Z,71.39
2022-09-21T18:36:31.501Z,71.02
2022-09-21T18:39:54.019Z,71.79
2022-09-21T18:43:22.909Z,71.49
2022-09-21T18:46:50.414Z,72.17
2022-09-21T18:50:08.698Z,72.33
2022-09-21T18:53:26.108Z,72.60
2022-09-21T18:56:37.531Z,72.73
2022-09-21T18:59:46.959Z,73.22
2022-09-21T19:03:15.714Z,73.74
2022-09-21T19:06:40.342Z,72.84
2022-09-21T19:10:05.265Z,73.16
2022-09-21T19:13:43.042Z,73.45
2022-09-21T19:17:10.456Z,74.22
2022-09-21T19:20:50.790Z,74.57
2022-09-21T19:24:11.853Z,74.50
2022-09-21T19:27:29.124Z,74.65
2022-09-21T19:30:39.797Z,74.73
2022-09-21T19:33:51.032Z,75.31
2022-09-21T19:37:07.025Z,75.07
2022-09-21T19:40:22.288Z,76.11
2022-09-21T19:43:42.885Z,75.15
2022-09-21T19:47:07.415Z,75.18
2022-09-21T19:50:23.269Z,75.62
2022-09-21T19:53:51.553Z,76.61
2022-09-21T19:57:18.358Z,76.13
2022-09-21T20:00:27.525Z,76.82
2022-09-21T20:03:44.628Z,76.50
2022-09-21T20:07:03.225Z,76.68
2022-09-21T20:10:38.478Z,76.87
2022-09-21T20:14:09.106Z,77.49
2022-09-21T20:17:26.297Z,77.20
2022-09-21T20:20:35.014Z,77.78
2022-09-21T20:23:46.791Z,77.68
2022-09-21T20:27:00.777Z,77.41
2022-09-21T20:30:13.217Z,77.03
2022-09-21T20:33:24.150Z,77.51
2022-09-21T20:36:33.223Z,77.77
2022-09-21T20:39:42.278Z,77.51
2022-09-21T20:42:52.406Z,78.03
2022-09-21T20:46:00.654Z,77.39
2022-09-21T20:49:09.186Z,77.74
2022-09-21T20:52:18.372Z,78.09
2022-09-21T20:55:29.339Z,78.11
2022-09-21T20:58:38.781Z,78.08
2022-09-21T21:01:49.882Z,77.47
2022-09-21T21:04:58.026Z,78.53
2022-09-21T21:08:07.661Z,78.67
2022-09-21T21:11:16.144Z,77.86
2022-09-21T21:14:26.389Z,77.89
2022-09-21T21:17:35.879Z,77.95
2022-09-21T21:20:44.440Z,79.03
2022-09-21T21:24:10.694Z,79.13
2022-09-21T21:27:21.647Z,78.91
2022-09-21T21:30:32.086Z,79.80
2022-09-21T21:33:40.274Z,79.32
2022-09-21T21:36:49.055Z,79.25
2022-09-21T21:39:58.742Z,79.24
2022-09-21T21:43:07.067Z,79.10
2022-09-21T21:46:16.595Z,79.25
2022-09-21T21:49:25.847Z,79.50
2022-09-21T21:52:34.114Z,79.49
2022-09-21T21:55:42.491Z,80.28
2022-09-21T21:58:54.326Z,79.34
2022-09-21T22:02:04.353Z,79.34
2022-09-21T22:05:12.767Z,79.49
2022-09-21T22:08:21.094Z,79.38
2022-09-21T22:11:30.981Z,79.23
2022-09-21T22:14:39.608Z,80.09
2022-09-21T22:17:50.794Z,79.78
2022-09-21T22:21:04.098Z,78.89
2022-09-21T22:24:12.968Z,79.39
2022-09-21T22:27:21.925Z,79.92
2022-09-21T22:30:30.991Z,79.77
2022-09-21T22:33:41.422Z,78.66
2022-09-21T22:36:50.673Z,78.55
2022-09-21T22:39:59.361Z,78.96
2022-09-21T22:43:07.768Z,78.58
2022-09-21T22:46:17.625Z,79.67
2022-09-21T22:49:27.124Z,79.78
2022-09-21T22:52:35.919Z,79.58
2022-09-21T22:55:44.356Z,79.09
2022-09-21T22:58:57.684Z,79.59
2022-09-21T23:02:08.512Z,79.83
2022-09-21T23:05:18.440Z,79.74
2022-09-21T23:08:27.896Z,79.80
2022-09-21T23:11:39.958Z,80.40
2022-09-21T23:14:48.618Z,81.18
2022-09-21T23:17:57.263Z,80.58
2022-09-21T23:21:11.656Z,80.12
2022-09-21T23:24:21.208Z,80.73
2022-09-21T23:27:30.062Z,80.25
2022-09-21T23:30:38.863Z,80.73
2022-09-21T23:33:49.901Z,80.09
2022-09-21T23:36:59.701Z,79.50
2022-09-21T23:40:11.010Z,78.95
2022-09-21T23:43:19.574Z,78.93
2022-09-21T23:46:32.843Z,79.48
2022-09-21T23:49:41.541Z,79.71
2022-09-21T23:52:51.850Z,80.28
2022-09-21T23:56:01.620Z,80.68
2022-09-21T23:59:12.454Z,80.49
